createdAt,value
2024-01-15T00:02:25.932Z,9.27
2024-01-15T00:04:54.011Z,9.90
2024-01-15T00:07:21.846Z,10.02
2024-01-15T00:09:50.015Z,9.93
2024-01-15T00:12:17.833Z,7.03
2024-01-15T00:14:45.548Z,8.63
2024-01-15T00:17:14.963Z,5.47
2024-01-15T00:19:42.943Z,10.18
2024-01-15T00:22:11.093Z,4.88
2024-01-15T00:24:37.843Z,6.03
2024-01-15T00:27:06.036Z,7.50
2024-01-15T00:29:33.952Z,4.88
2024-01-15T00:32:01.931Z,5.57
2024-01-15T00:34:31.801Z,8.55
2024-01-15T00:36:59.892Z,11.90
2024-01-15T00:39:28.128Z,6.45
2024-01-15T00:41:55.901Z,7.50
2024-01-15T00:44:23.888Z,12.65
2024-01-15T00:46:51.791Z,6.28
2024-01-15T00:49:20.097Z,14.30
2024-01-15T00:51:49.661Z,8.02
2024-01-15T00:54:17.835Z,8.63
2024-01-15T00:56:45.760Z,6.97
2024-01-15T00:59:16.468Z,6.80
2024-01-15T01:01:47.106Z,6.30
2024-01-15T01:04:15.173Z,1.70
2024-01-15T01:06:43.007Z,14.40
2024-01-15T01:09:12.304Z,8.63
2024-01-15T01:11:39.961Z,11.15
2024-01-15T01:14:07.732Z,12.80
2024-01-15T01:16:40.620Z,9.63
2024-01-15T01:19:09.422Z,12.13
2024-01-15T01:21:37.552Z,7.65
2024-01-15T01:24:05.627Z,10.68
2024-01-15T01:26:35.330Z,13.85
2024-01-15T01:29:03.513Z,14.07
2024-01-15T01:31:31.663Z,16.17
2024-01-15T01:33:59.728Z,13.85
2024-01-15T01:36:28.150Z,19.92
2024-01-15T01:38:56.070Z,11.25
2024-01-15T01:41:25.320Z,8.30
2024-01-15T01:43:54.859Z,11.90
2024-01-15T01:46:22.638Z,11.70
2024-01-15T01:48:50.813Z,11.75
2024-01-15T01:51:18.615Z,15.38
2024-01-15T01:53:47.060Z,25.13
2024-01-15T01:56:14.945Z,17.20
2024-01-15T01:58:42.968Z,13.55
2024-01-15T02:01:12.806Z,12.02
2024-01-15T02:03:42.341Z,15.80
2024-01-15T02:06:10.668Z,19.10
2024-01-15T02:08:38.847Z,15.05
2024-01-15T02:11:07.010Z,19.20
2024-01-15T02:13:35.007Z,10.88
2024-01-15T02:16:02.738Z,9.25
2024-01-15T02:18:41.222Z,10.07
2024-01-15T02:21:09.181Z,9.07
2024-01-15T02:23:38.381Z,18.52
2024-01-15T02:26:06.992Z,12.02
2024-01-15T02:28:34.953Z,13.23
2024-01-15T02:31:02.751Z,5.13
2024-01-15T02:33:30.624Z,11.25
2024-01-15T02:35:58.675Z,16.85
2024-01-15T02:38:26.426Z,10.52
2024-01-15T02:40:55.836Z,16.02
2024-01-15T02:43:23.785Z,11.30
2024-01-15T02:45:51.698Z,14.75
2024-01-15T02:48:19.602Z,8.65
2024-01-15T02:50:47.486Z,18.25
2024-01-15T02:53:15.548Z,20.33
2024-01-15T02:55:43.686Z,15.10
2024-01-15T02:58:13.088Z,8.95
2024-01-15T03:00:41.379Z,9.70
2024-01-15T03:03:09.245Z,10.57
2024-01-15T03:05:40.174Z,7.85
2024-01-15T03:08:08.376Z,8.55
2024-01-15T03:10:36.180Z,10.02
2024-01-15T03:13:04.483Z,10.70
2024-01-15T03:15:34.196Z,9.35
2024-01-15T03:18:02.203Z,13.50
2024-01-15T03:20:30.188Z,11.85
2024-01-15T03:22:58.090Z,12.55
2024-01-15T03:25:25.831Z,7.28
2024-01-15T03:27:53.751Z,10.05
2024-01-15T03:30:21.622Z,14.23
2024-01-15T03:32:51.319Z,24.67
2024-01-15T03:35:19.180Z,26.05
2024-01-15T03:37:47.306Z,22.27
2024-01-15T03:40:16.048Z,20.60
2024-01-15T03:42:44.991Z,11.95
2024-01-15T03:45:13.114Z,14.57
2024-01-15T03:47:41.132Z,12.73
2024-01-15T03:50:11.035Z,9.73
2024-01-15T03:52:39.097Z,16.25
2024-01-15T03:55:07.884Z,13.75
2024-01-15T03:57:35.567Z,19.50
2024-01-15T04:00:04.660Z,22.90
2024-01-15T04:02:32.390Z,21.80
2024-01-15T04:05:00.411Z,20.15
2024-01-15T04:07:29.992Z,22.25
2024-01-15T04:09:57.750Z,19.15
2024-01-15T04:12:25.863Z,13.70
2024-01-15T04:14:53.562Z,16.45
2024-01-15T04:17:22.725Z,18.35
2024-01-15T04:19:50.753Z,17.38
2024-01-15T04:22:19.180Z,11.40
2024-01-15T04:24:48.676Z,16.88
2024-01-15T04:27:16.716Z,9.27
2024-01-15T04:29:45.955Z,14.50
2024-01-15T04:32:13.927Z,9.30
2024-01-15T04:34:41.767Z,7.40
2024-01-15T04:37:09.564Z,10.20
2024-01-15T04:39:37.301Z,8.95
2024-01-15T04:42:06.800Z,9.38
2024-01-15T04:44:34.514Z,12.20
2024-01-15T04:47:02.236Z,11.10
2024-01-15T04:49:30.797Z,6.68
2024-01-15T04:51:58.610Z,0.95
2024-01-15T04:54:26.385Z,5.15
2024-01-15T04:56:54.201Z,5.22
2024-01-15T04:59:23.492Z,16.40
2024-01-15T05:01:51.465Z,10.05
2024-01-15T05:04:19.310Z,17.27
2024-01-15T05:06:47.165Z,11.32
2024-01-15T05:09:15.448Z,17.27
2024-01-15T05:11:43.231Z,16.35
2024-01-15T05:14:11.027Z,12.10
2024-01-15T05:16:41.656Z,13.98
2024-01-15T05:19:10.109Z,17.67
2024-01-15T05:21:38.184Z,14.25
2024-01-15T05:24:06.234Z,13.30
2024-01-15T05:26:34.017Z,16.70
2024-01-15T05:29:02.103Z,17.08
2024-01-15T05:31:30.332Z,22.25
2024-01-15T05:33:59.875Z,14.13
2024-01-15T05:36:27.846Z,19.92
2024-01-15T05:38:55.540Z,9.27
2024-01-15T05:41:23.802Z,19.50
2024-01-15T05:43:51.759Z,12.30
2024-01-15T05:46:19.905Z,13.85
2024-01-15T05:48:48.608Z,9.75
2024-01-15T05:51:18.509Z,15.45
2024-01-15T05:56:14.428Z,18.33
2024-01-15T05:58:42.437Z,13.35
2024-01-15T06:01:10.478Z,18.80
2024-01-15T06:03:42.770Z,17.27
2024-01-15T06:06:11.172Z,10.80
2024-01-15T06:08:40.939Z,17.48
2024-01-15T06:11:09.177Z,15.13
2024-01-15T06:13:36.916Z,12.80
2024-01-15T06:16:06.908Z,18.67
2024-01-15T06:18:35.457Z,13.27
2024-01-15T06:21:03.423Z,12.80
2024-01-15T06:23:31.704Z,17.92
2024-01-15T06:26:01.153Z,13.43
2024-01-15T06:28:29.188Z,18.52
2024-01-15T06:30:57.173Z,9.40
2024-01-15T06:33:25.582Z,13.10
2024-01-15T06:35:53.468Z,13.65
2024-01-15T06:38:21.325Z,15.75
2024-01-15T06:40:52.413Z,12.90
2024-01-15T06:43:23.286Z,21.55
2024-01-15T06:45:51.350Z,19.70
2024-01-15T06:48:19.491Z,20.23
2024-01-15T06:50:47.667Z,15.25
2024-01-15T06:53:15.562Z,18.45
2024-01-15T06:55:43.562Z,13.88
2024-01-15T06:58:11.759Z,16.10
2024-01-15T07:00:41.781Z,13.07
2024-01-15T07:03:09.817Z,23.60
2024-01-15T07:05:38.446Z,18.60
2024-01-15T07:08:06.555Z,20.08
2024-01-15T07:10:37.161Z,17.67
2024-01-15T07:13:05.929Z,17.77
2024-01-15T07:15:33.993Z,16.83
2024-01-15T07:18:03.952Z,12.88
2024-01-15T07:20:31.715Z,12.93
2024-01-15T07:22:59.493Z,14.10
2024-01-15T07:25:28.308Z,11.32
2024-01-15T07:27:56.194Z,9.23
2024-01-15T07:30:24.141Z,12.80
2024-01-15T07:32:54.101Z,12.30
2024-01-15T07:35:23.920Z,15.70
2024-01-15T07:37:51.784Z,7.68
2024-01-15T07:40:19.496Z,15.02
2024-01-15T07:42:47.654Z,18.30
2024-01-15T07:45:15.595Z,9.07
2024-01-15T07:47:43.715Z,7.13
2024-01-15T07:50:11.999Z,10.63
2024-01-15T07:52:41.099Z,15.30
2024-01-15T07:55:08.982Z,5.07
2024-01-15T07:57:37.700Z,11.88
2024-01-15T08:00:06.466Z,13.25
2024-01-15T08:02:37.414Z,14.75
2024-01-15T08:05:05.996Z,16.30
2024-01-15T08:07:34.236Z,5.45
2024-01-15T08:10:03.572Z,10.18
2024-01-15T08:12:31.620Z,7.82
2024-01-15T08:14:59.502Z,8.70
2024-01-15T08:17:29.780Z,12.40
2024-01-15T08:19:58.152Z,7.03
2024-01-15T08:22:26.090Z,8.25
2024-01-15T08:24:55.104Z,9.82
2024-01-15T08:27:24.541Z,2.53
2024-01-15T08:29:52.657Z,9.88
2024-01-15T08:32:20.431Z,9.75
2024-01-15T08:34:50.176Z,9.70
2024-01-15T08:37:17.999Z,13.15
2024-01-15T08:39:45.738Z,3.90
2024-01-15T08:42:13.765Z,14.52
2024-01-15T08:44:44.912Z,4.35
2024-01-15T08:47:12.619Z,0.60
2024-01-15T08:49:42.034Z,2.97
2024-01-15T08:52:10.205Z,2.60
2024-01-15T08:54:38.417Z,5.85
2024-01-15T08:57:06.730Z,9.27
2024-01-15T08:59:34.482Z,3.53
2024-01-15T09:02:03.849Z,8.82
2024-01-15T09:04:31.879Z,4.22
2024-01-15T09:06:59.690Z,3.78
2024-01-15T09:09:28.726Z,5.30
2024-01-15T09:11:56.357Z,7.75
2024-01-15T09:14:33.318Z,3.97
2024-01-15T09:17:06.750Z,5.50
2024-01-15T09:19:34.694Z,6.10
2024-01-15T09:22:02.510Z,6.57
2024-01-15T09:24:30.622Z,6.32
2024-01-15T09:26:58.487Z,5.55
2024-01-15T09:29:26.213Z,4.72
2024-01-15T09:31:54.506Z,7.45
2024-01-15T09:34:24.368Z,3.63
2024-01-15T09:36:52.540Z,8.75
2024-01-15T09:39:20.498Z,7.95
2024-01-15T09:41:49.634Z,7.55
2024-01-15T09:44:18.257Z,3.35
2024-01-15T09:46:46.101Z,9.15
2024-01-15T09:49:14.320Z,6.60
2024-01-15T09:51:44.201Z,3.15
2024-01-15T09:54:14.438Z,2.17
2024-01-15T09:56:42.205Z,2.20
2024-01-15T09:59:10.524Z,4.35
2024-01-15T10:01:39.315Z,3.83
2024-01-15T10:04:07.327Z,8.18
2024-01-15T10:06:36.062Z,9.45
2024-01-15T10:09:05.657Z,5.13
2024-01-15T10:11:34.088Z,9.00
2024-01-15T10:14:01.817Z,9.98
2024-01-15T10:16:29.577Z,6.40
2024-01-15T10:18:57.482Z,4.68
2024-01-15T10:21:27.696Z,6.40
2024-01-15T10:23:55.954Z,4.88
2024-01-15T10:26:28.497Z,5.13
2024-01-15T10:28:56.602Z,6.65
2024-01-15T10:31:27.176Z,4.30
2024-01-15T10:33:59.092Z,4.35
2024-01-15T10:36:28.340Z,2.45
2024-01-15T10:39:01.161Z,3.05
2024-01-15T10:41:30.310Z,4.80
2024-01-15T10:43:58.376Z,2.20
2024-01-15T10:46:26.893Z,4.07
2024-01-15T10:48:55.103Z,1.80
2024-01-15T10:51:22.918Z,4.25
2024-01-15T10:53:51.802Z,0.75
2024-01-15T10:56:20.212Z,1.23
2024-01-15T10:58:49.421Z,3.85
2024-01-15T11:01:18.130Z,1.25
2024-01-15T11:03:46.264Z,3.47
2024-01-15T11:06:21.479Z,0.75
2024-01-15T11:08:50.769Z,0.93
2024-01-15T11:11:18.989Z,1.30
2024-01-15T11:13:52.948Z,1.40
2024-01-15T11:16:20.877Z,2.00
2024-01-15T11:19:04.634Z,3.00
2024-01-15T11:21:32.691Z,2.25
2024-01-15T11:24:01.235Z,3.80
2024-01-15T11:26:28.874Z,2.20
2024-01-15T11:28:58.416Z,1.20
2024-01-15T11:31:28.849Z,1.48
2024-01-15T11:33:57.994Z,3.05
2024-01-15T11:36:40.767Z,0.10
2024-01-15T11:39:32.821Z,5.57
2024-01-15T11:42:01.579Z,1.00
2024-01-15T11:44:31.421Z,2.90
2024-01-15T11:47:00.013Z,3.20
2024-01-15T11:49:36.496Z,1.10
2024-01-15T11:52:04.482Z,2.05
2024-01-15T11:54:35.229Z,1.73
2024-01-15T11:57:05.523Z,3.03
2024-01-15T11:59:34.709Z,0.40
2024-01-15T12:02:04.178Z,4.28
2024-01-15T12:04:32.045Z,2.75
2024-01-15T12:06:59.985Z,1.00
2024-01-15T12:09:29.110Z,1.00
2024-01-15T12:12:01.775Z,1.45
2024-01-15T12:14:30.481Z,1.70
2024-01-15T12:17:01.322Z,1.63
2024-01-15T12:19:30.242Z,1.20
2024-01-15T12:21:58.131Z,1.45
2024-01-15T12:24:25.813Z,1.90
2024-01-15T12:26:53.653Z,1.42
2024-01-15T12:29:22.020Z,2.65
2024-01-15T12:31:50.573Z,2.30
2024-01-15T12:34:21.312Z,0.75
2024-01-15T12:36:49.263Z,2.15
2024-01-15T12:39:17.173Z,0.95
2024-01-15T12:41:45.152Z,1.05
2024-01-15T12:44:13.041Z,1.17
2024-01-15T12:46:41.195Z,1.38
2024-01-15T12:49:10.018Z,0.35
2024-01-15T12:51:39.978Z,1.23
2024-01-15T12:54:07.918Z,0.73
2024-01-15T12:56:35.796Z,0.70
2024-01-15T12:59:03.490Z,1.33
2024-01-15T13:01:31.326Z,0.65
2024-01-15T13:04:00.870Z,1.25
2024-01-15T13:06:28.861Z,0.85
2024-01-15T13:08:58.613Z,1.27
2024-01-15T13:11:27.218Z,1.52
2024-01-15T13:13:55.013Z,4.55
2024-01-15T13:16:24.900Z,7.30
2024-01-15T13:18:54.277Z,12.93
2024-01-15T13:21:22.191Z,7.68
2024-01-15T13:23:49.881Z,4.22
2024-01-15T13:26:20.370Z,6.25
2024-01-15T13:28:48.130Z,7.32
2024-01-15T13:31:16.122Z,9.85
2024-01-15T13:33:44.898Z,6.47
2024-01-15T13:36:13.109Z,8.45
2024-01-15T13:38:41.393Z,11.10
2024-01-15T13:41:09.380Z,10.50
2024-01-15T13:43:39.044Z,8.27
2024-01-15T13:46:07.232Z,7.65
2024-01-15T13:48:35.038Z,15.38
2024-01-15T13:51:03.225Z,15.73
2024-01-15T13:53:31.038Z,11.30
2024-01-15T13:55:59.044Z,5.43
2024-01-15T13:58:27.164Z,14.05
2024-01-15T14:00:56.564Z,9.35
2024-01-15T14:03:24.696Z,15.02
2024-01-15T14:05:52.725Z,16.10
2024-01-15T14:08:20.904Z,15.07
2024-01-15T14:10:48.905Z,15.93
2024-01-15T14:13:16.565Z,10.95
2024-01-15T14:15:44.809Z,15.13
2024-01-15T14:18:14.180Z,14.18
2024-01-15T14:20:42.618Z,12.98
2024-01-15T14:23:10.376Z,12.82
2024-01-15T14:25:38.274Z,14.90
2024-01-15T14:28:06.257Z,2.85
2024-01-15T14:30:34.154Z,14.23
2024-01-15T14:33:02.476Z,7.90
2024-01-15T14:35:31.608Z,6.93
2024-01-15T14:37:59.927Z,14.55
2024-01-15T14:40:28.209Z,7.75
2024-01-15T14:42:56.378Z,13.05
2024-01-15T14:45:24.230Z,12.30
2024-01-15T14:47:52.171Z,14.43
2024-01-15T14:50:20.847Z,12.32
2024-01-15T14:52:50.486Z,11.30
2024-01-15T14:55:18.113Z,13.20
2024-01-15T14:57:46.261Z,12.05
2024-01-15T15:00:14.720Z,3.35
2024-01-15T15:02:42.942Z,7.90
2024-01-15T15:05:14.818Z,5.55
2024-01-15T15:07:42.930Z,8.45
2024-01-15T15:10:13.290Z,11.80
2024-01-15T15:12:41.528Z,11.40
2024-01-15T15:15:14.634Z,10.90
2024-01-15T15:17:45.448Z,12.10
2024-01-15T15:20:14.227Z,9.85
2024-01-15T15:22:41.989Z,7.43
2024-01-15T15:25:10.795Z,9.18
2024-01-15T15:27:41.117Z,7.70
2024-01-15T15:30:09.700Z,7.53
2024-01-15T15:32:38.058Z,6.78
2024-01-15T15:35:06.427Z,9.73
2024-01-15T15:37:34.287Z,8.57
2024-01-15T15:40:03.610Z,6.78
2024-01-15T15:42:31.305Z,9.02
2024-01-15T15:45:02.686Z,8.85
2024-01-15T15:47:31.544Z,8.80
2024-01-15T15:49:59.555Z,5.60
2024-01-15T15:52:27.752Z,9.60
2024-01-15T15:54:55.626Z,8.35
2024-01-15T15:57:23.832Z,7.80
2024-01-15T15:59:51.898Z,8.73
2024-01-15T16:02:21.310Z,9.30
2024-01-15T16:04:49.368Z,11.95
2024-01-15T16:07:17.341Z,6.07
2024-01-15T16:09:45.804Z,7.05
2024-01-15T16:12:15.280Z,6.40
2024-01-15T16:14:43.206Z,6.13
2024-01-15T16:23:14.645Z,7.25
2024-01-15T16:23:28.313Z,5.85
2024-01-15T16:23:44.012Z,6.97
2024-01-15T16:25:39.685Z,8.35
2024-01-15T16:28:08.505Z,2.65
2024-01-15T16:30:43.148Z,5.72
2024-01-15T16:33:14.096Z,5.68
2024-01-15T16:35:43.819Z,7.90
2024-01-15T16:38:13.117Z,8.95
2024-01-15T16:40:41.764Z,4.88
2024-01-15T16:43:10.132Z,7.13
2024-01-15T16:45:38.208Z,4.47
2024-01-15T16:48:06.437Z,7.55
2024-01-15T16:50:34.861Z,8.55
2024-01-15T16:53:04.128Z,6.45
2024-01-15T16:55:31.947Z,7.65
2024-01-15T16:58:00.058Z,7.28
2024-01-15T17:00:27.817Z,6.20
2024-01-15T17:02:56.040Z,6.93
2024-01-15T17:05:24.470Z,7.70
2024-01-15T17:07:52.545Z,10.73
2024-01-15T17:10:22.075Z,9.45
2024-01-15T17:12:50.092Z,4.07
2024-01-15T17:15:18.062Z,6.15
2024-01-15T17:17:46.179Z,8.65
2024-01-15T17:20:14.239Z,11.75
2024-01-15T17:22:41.988Z,6.70
2024-01-15T17:25:09.893Z,9.55
2024-01-15T17:27:39.301Z,9.07
2024-01-15T17:30:08.686Z,9.25
2024-01-15T17:32:36.500Z,4.60
2024-01-15T17:35:05.427Z,7.18
2024-01-15T17:37:33.430Z,5.68
2024-01-15T17:40:04.279Z,7.75
2024-01-15T17:42:33.870Z,10.73
2024-01-15T17:45:03.229Z,8.55
2024-01-15T17:47:31.312Z,9.68
2024-01-15T17:49:59.167Z,11.05
2024-01-15T17:52:26.916Z,11.32
2024-01-15T17:54:54.911Z,10.23
2024-01-15T17:57:22.663Z,9.00
2024-01-15T17:59:50.359Z,8.15
2024-01-15T18:02:19.655Z,9.85
2024-01-15T18:04:47.645Z,8.27
2024-01-15T18:07:15.927Z,8.32
2024-01-15T18:09:43.813Z,7.70
2024-01-15T18:12:11.691Z,8.85
2024-01-15T18:14:39.982Z,5.97
2024-01-15T18:17:07.760Z,8.13
2024-01-15T18:19:37.009Z,9.27
2024-01-15T18:22:05.871Z,7.78
2024-01-15T18:24:33.592Z,8.13
2024-01-15T18:27:04.266Z,8.40
2024-01-15T18:29:32.678Z,8.73
2024-01-15T18:32:00.542Z,9.75
2024-01-15T18:34:28.375Z,11.20
2024-01-15T18:36:57.760Z,9.65
2024-01-15T18:39:25.480Z,5.72
2024-01-15T18:41:53.313Z,7.88
2024-01-15T18:44:21.193Z,9.45
2024-01-15T18:46:49.356Z,9.77
2024-01-15T18:49:17.731Z,8.45
2024-01-15T18:51:45.537Z,9.38
2024-01-15T18:54:15.975Z,9.10
2024-01-15T18:56:43.950Z,11.95
2024-01-15T18:59:12.799Z,9.18
2024-01-15T19:01:40.910Z,7.25
2024-01-15T19:04:11.431Z,9.32
2024-01-15T19:06:41.544Z,9.32
2024-01-15T19:09:11.137Z,5.85
2024-01-15T19:11:41.386Z,4.13
2024-01-15T19:14:09.197Z,8.90
2024-01-15T19:16:37.323Z,4.60
2024-01-15T19:19:05.199Z,5.53
2024-01-15T19:21:34.144Z,5.20
2024-01-15T19:24:03.520Z,10.02
2024-01-15T19:26:31.508Z,3.50
2024-01-15T19:29:00.703Z,12.52
2024-01-15T19:31:30.514Z,9.63
2024-01-15T19:33:58.548Z,11.18
2024-01-15T19:36:27.914Z,11.25
2024-01-15T19:38:55.849Z,10.38
2024-01-15T19:41:23.924Z,9.05
2024-01-15T19:43:51.901Z,10.48
2024-01-15T19:46:21.000Z,7.78
2024-01-15T19:48:49.019Z,8.35
2024-01-15T19:51:17.075Z,4.75
2024-01-15T19:53:45.074Z,5.32
2024-01-15T19:56:14.088Z,10.00
2024-01-15T19:58:41.884Z,4.95
2024-01-15T20:01:10.198Z,7.88
2024-01-15T20:03:39.405Z,6.35
2024-01-15T20:06:12.681Z,8.48
2024-01-15T20:08:43.747Z,8.65
2024-01-15T20:11:12.041Z,5.82
2024-01-15T20:13:41.145Z,3.13
2024-01-15T20:16:09.797Z,7.07
2024-01-15T20:18:39.666Z,6.97
2024-01-15T20:21:08.396Z,5.78
2024-01-15T20:23:46.447Z,4.20
2024-01-15T20:26:23.607Z,1.17
2024-01-15T20:28:51.462Z,1.00
2024-01-15T20:31:19.505Z,4.07
2024-01-15T20:33:48.805Z,1.98
2024-01-15T20:36:16.811Z,2.88
2024-01-15T20:38:44.918Z,2.63
2024-01-15T20:41:12.752Z,1.08
2024-01-15T20:43:41.057Z,1.02
2024-01-15T20:46:11.205Z,0.90
2024-01-15T20:48:40.043Z,4.93
2024-01-15T20:51:11.003Z,1.15
2024-01-15T20:53:39.468Z,2.10
2024-01-15T20:56:07.794Z,3.08
2024-01-15T20:58:35.760Z,2.38
2024-01-15T21:01:05.901Z,1.98
2024-01-15T21:03:34.020Z,1.05
2024-01-15T21:06:02.089Z,2.47
2024-01-15T21:08:32.180Z,2.38
2024-01-15T21:11:01.127Z,1.88
2024-01-15T21:13:28.949Z,3.22
2024-01-15T21:15:56.934Z,6.53
2024-01-15T21:18:25.302Z,3.97
2024-01-15T21:20:53.514Z,4.57
2024-01-15T21:23:21.640Z,6.70
2024-01-15T21:25:50.946Z,6.93
2024-01-15T21:28:19.122Z,5.13
2024-01-15T21:30:48.005Z,2.10
2024-01-15T21:33:16.373Z,4.95
2024-01-15T21:35:44.211Z,7.18
2024-01-15T21:38:12.017Z,3.22
2024-01-15T21:40:39.863Z,2.55
2024-01-15T21:43:09.317Z,4.32
2024-01-15T21:45:37.164Z,4.20
2024-01-15T21:48:05.194Z,4.05
2024-01-15T21:50:35.661Z,7.07
2024-01-15T21:53:03.402Z,2.60
2024-01-15T21:55:31.111Z,4.28
2024-01-15T21:57:58.798Z,3.17
2024-01-15T22:00:28.457Z,2.80
2024-01-15T22:02:56.271Z,3.70
2024-01-15T22:05:24.089Z,4.10
2024-01-15T22:07:51.896Z,5.13
2024-01-15T22:10:19.671Z,3.60
2024-01-15T22:12:47.408Z,6.95
2024-01-15T22:15:15.252Z,5.43
2024-01-15T22:17:44.586Z,5.97
2024-01-15T22:20:13.420Z,5.55
2024-01-15T22:22:41.287Z,7.05
2024-01-15T22:25:09.442Z,3.38
2024-01-15T22:27:37.208Z,3.13
2024-01-15T22:30:06.018Z,4.32
2024-01-15T22:32:34.088Z,5.22
2024-01-15T22:35:03.310Z,2.90
2024-01-15T22:37:31.058Z,4.50
2024-01-15T22:39:59.485Z,4.25
2024-01-15T22:42:27.569Z,3.35
2024-01-15T22:44:55.302Z,4.50
2024-01-15T22:47:23.204Z,3.30
2024-01-15T22:49:50.979Z,4.85
2024-01-15T22:52:20.113Z,3.00
2024-01-15T22:54:49.845Z,5.57
2024-01-15T22:57:17.507Z,4.97
2024-01-15T22:59:45.630Z,3.55
2024-01-15T23:02:13.524Z,5.50
2024-01-15T23:04:41.577Z,4.82
2024-01-15T23:07:09.558Z,3.78
2024-01-15T23:09:39.401Z,5.10
2024-01-15T23:12:08.480Z,5.78
2024-01-15T23:14:36.413Z,2.45
2024-01-15T23:17:04.311Z,5.53
2024-01-15T23:19:32.360Z,1.98
2024-01-15T23:22:00.375Z,2.25
2024-01-15T23:24:28.069Z,3.08
2024-01-15T23:26:57.373Z,6.53
2024-01-15T23:29:25.418Z,4.25
2024-01-15T23:31:53.452Z,4.78
2024-01-15T23:34:21.504Z,4.47
2024-01-15T23:36:49.246Z,5.60
2024-01-15T23:39:17.252Z,7.05
2024-01-15T23:41:45.499Z,4.63
2024-01-15T23:44:14.942Z,3.15
2024-01-15T23:46:42.937Z,3.97
2024-01-15T23:49:10.770Z,3.63
2024-01-15T23:51:38.802Z,3.75
2024-01-15T23:54:06.586Z,2.75
2024-01-15T23:56:34.376Z,3.95
2024-01-15T23:59:02.426Z,4.53
